sensor_id;sensor_type;location;lat;lon;timestamp;P1;durP1;ratioP1;P2;durP2;ratioP2
41921;SDS011;27609;51.002;5.354;2022-09-03T00:08:13;3.53;;;1.60;;
41921;SDS011;27609;51.002;5.354;2022-09-03T00:11:05;2.10;;;1.60;;
41921;SDS011;27609;51.002;5.354;2022-09-03T00:13:41;9.00;;;1.92;;
41921;SDS011;27609;51.002;5.354;2022-09-03T00:16:13;2.47;;;1.50;;
41921;SDS011;27609;51.002;5.354;2022-09-03T00:18:45;2.35;;;1.73;;
41921;SDS011;27609;51.002;5.354;2022-09-03T00:21:17;3.97;;;2.95;;
41921;SDS011;27609;51.002;5.354;2022-09-03T00:23:59;3.17;;;2.03;;
41921;SDS011;27609;51.002;5.354;2022-09-03T00:26:27;2.85;;;1.90;;
41921;SDS011;27609;51.002;5.354;2022-09-03T00:29:12;3.53;;;1.67;;
41921;SDS011;27609;51.002;5.354;2022-09-03T00:31:57;3.15;;;1.70;;
41921;SDS011;27609;51.002;5.354;2022-09-03T00:36:53;6.82;;;1.92;;
41921;SDS011;27609;51.002;5.354;2022-09-03T00:39:20;5.30;;;1.67;;
41921;SDS011;27609;51.002;5.354;2022-09-03T00:41:53;1.95;;;1.40;;
41921;SDS011;27609;51.002;5.354;2022-09-03T00:44:46;3.95;;;1.92;;
41921;SDS011;27609;51.002;5.354;2022-09-03T00:47:24;5.28;;;1.70;;
41921;SDS011;27609;51.002;5.354;2022-09-03T00:52:59;2.40;;;1.60;;
41921;SDS011;27609;51.002;5.354;2022-09-03T00:55:59;5.68;;;1.98;;
41921;SDS011;27609;51.002;5.354;2022-09-03T00:58:58;7.00;;;1.80;;
41921;SDS011;27609;51.002;5.354;2022-09-03T01:10:17;2.20;;;1.58;;
41921;SDS011;27609;51.002;5.354;2022-09-03T01:12:59;2.92;;;1.42;;
41921;SDS011;27609;51.002;5.354;2022-09-03T01:21:12;5.30;;;2.20;;
41921;SDS011;27609;51.002;5.354;2022-09-03T01:38:31;6.30;;;1.75;;
41921;SDS011;27609;51.002;5.354;2022-09-03T01:44:13;9.77;;;2.35;;
41921;SDS011;27609;51.002;5.354;2022-09-03T01:46:56;5.55;;;1.90;;
41921;SDS011;27609;51.002;5.354;2022-09-03T01:53:27;2.03;;;1.77;;
41921;SDS011;27609;51.002;5.354;2022-09-03T01:58:29;4.35;;;1.90;;
41921;SDS011;27609;51.002;5.354;2022-09-03T02:01:03;3.33;;;1.83;;
41921;SDS011;27609;51.002;5.354;2022-09-03T02:03:38;1.90;;;1.20;;
41921;SDS011;27609;51.002;5.354;2022-09-03T02:06:07;2.85;;;1.70;;
41921;SDS011;27609;51.002;5.354;2022-09-03T02:08:34;5.65;;;2.15;;
41921;SDS011;27609;51.002;5.354;2022-09-03T02:11:00;1.70;;;1.60;;
41921;SDS011;27609;51.002;5.354;2022-09-03T02:15:55;2.70;;;1.60;;
41921;SDS011;27609;51.002;5.354;2022-09-03T02:20:55;1.80;;;1.65;;
41921;SDS011;27609;51.002;5.354;2022-09-03T02:23:23;4.30;;;1.65;;
41921;SDS011;27609;51.002;5.354;2022-09-03T02:25:57;2.03;;;1.63;;
41921;SDS011;27609;51.002;5.354;2022-09-03T02:28:25;2.47;;;2.10;;
41921;SDS011;27609;51.002;5.354;2022-09-03T02:30:56;1.73;;;1.45;;
41921;SDS011;27609;51.002;5.354;2022-09-03T02:33:22;4.18;;;1.88;;
41921;SDS011;27609;51.002;5.354;2022-09-03T02:35:47;2.83;;;1.85;;
41921;SDS011;27609;51.002;5.354;2022-09-03T02:38:15;5.57;;;1.88;;
41921;SDS011;27609;51.002;5.354;2022-09-03T02:40:43;1.98;;;1.58;;
41921;SDS011;27609;51.002;5.354;2022-09-03T02:43:22;2.15;;;1.50;;
41921;SDS011;27609;51.002;5.354;2022-09-03T02:45:53;3.15;;;1.70;;
41921;SDS011;27609;51.002;5.354;2022-09-03T02:48:23;5.93;;;1.70;;
41921;SDS011;27609;51.002;5.354;2022-09-03T02:50:49;4.18;;;1.80;;
41921;SDS011;27609;51.002;5.354;2022-09-03T02:53:15;3.92;;;1.80;;
41921;SDS011;27609;51.002;5.354;2022-09-03T02:55:40;4.05;;;1.95;;
41921;SDS011;27609;51.002;5.354;2022-09-03T02:58:06;2.70;;;1.90;;
41921;SDS011;27609;51.002;5.354;2022-09-03T03:00:35;3.10;;;1.67;;
41921;SDS011;27609;51.002;5.354;2022-09-03T03:03:02;2.50;;;1.42;;
41921;SDS011;27609;51.002;5.354;2022-09-03T03:05:40;3.25;;;1.70;;
41921;SDS011;27609;51.002;5.354;2022-09-03T03:08:09;2.08;;;1.88;;
41921;SDS011;27609;51.002;5.354;2022-09-03T03:10:36;6.78;;;1.58;;
41921;SDS011;27609;51.002;5.354;2022-09-03T03:13:02;2.70;;;1.77;;
41921;SDS011;27609;51.002;5.354;2022-09-03T03:15:28;3.40;;;2.03;;
41921;SDS011;27609;51.002;5.354;2022-09-03T03:17:57;2.72;;;1.33;;
41921;SDS011;27609;51.002;5.354;2022-09-03T03:20:23;3.90;;;1.92;;
41921;SDS011;27609;51.002;5.354;2022-09-03T03:22:49;3.00;;;1.60;;
41921;SDS011;27609;51.002;5.354;2022-09-03T03:25:14;4.53;;;1.55;;
41921;SDS011;27609;51.002;5.354;2022-09-03T03:27:40;5.55;;;1.95;;
41921;SDS011;27609;51.002;5.354;2022-09-03T03:30:07;1.85;;;1.52;;
41921;SDS011;27609;51.002;5.354;2022-09-03T03:32:35;2.38;;;1.60;;
41921;SDS011;27609;51.002;5.354;2022-09-03T03:35:01;4.05;;;1.70;;
41921;SDS011;27609;51.002;5.354;2022-09-03T03:37:30;1.90;;;1.60;;
41921;SDS011;27609;51.002;5.354;2022-09-03T03:39:56;3.70;;;2.38;;
41921;SDS011;27609;51.002;5.354;2022-09-03T03:42:21;3.95;;;1.80;;
41921;SDS011;27609;51.002;5.354;2022-09-03T03:44:47;2.40;;;1.67;;
41921;SDS011;27609;51.002;5.354;2022-09-03T03:47:14;6.53;;;2.08;;
41921;SDS011;27609;51.002;5.354;2022-09-03T03:49:43;4.13;;;2.10;;
41921;SDS011;27609;51.002;5.354;2022-09-03T03:52:09;2.78;;;1.73;;
41921;SDS011;27609;51.002;5.354;2022-09-03T03:54:35;3.63;;;1.63;;
41921;SDS011;27609;51.002;5.354;2022-09-03T03:57:00;1.73;;;1.50;;
41921;SDS011;27609;51.002;5.354;2022-09-03T03:59:26;5.82;;;1.80;;
41921;SDS011;27609;51.002;5.354;2022-09-03T04:01:53;9.05;;;2.00;;
41921;SDS011;27609;51.002;5.354;2022-09-03T04:04:19;4.40;;;1.88;;
41921;SDS011;27609;51.002;5.354;2022-09-03T04:06:45;5.78;;;1.70;;
41921;SDS011;27609;51.002;5.354;2022-09-03T04:09:10;3.15;;;1.75;;
41921;SDS011;27609;51.002;5.354;2022-09-03T04:11:36;5.30;;;1.85;;
41921;SDS011;27609;51.002;5.354;2022-09-03T04:14:01;2.17;;;1.60;;
41921;SDS011;27609;51.002;5.354;2022-09-03T04:16:27;3.00;;;1.75;;
41921;SDS011;27609;51.002;5.354;2022-09-03T04:18:53;6.45;;;2.00;;
41921;SDS011;27609;51.002;5.354;2022-09-03T04:21:24;4.97;;;2.03;;
41921;SDS011;27609;51.002;5.354;2022-09-03T04:23:52;2.10;;;1.88;;
41921;SDS011;27609;51.002;5.354;2022-09-03T04:26:19;4.60;;;1.90;;
41921;SDS011;27609;51.002;5.354;2022-09-03T04:28:46;3.03;;;1.55;;
41921;SDS011;27609;51.002;5.354;2022-09-03T04:31:13;2.88;;;1.88;;
41921;SDS011;27609;51.002;5.354;2022-09-03T04:33:40;3.88;;;1.38;;
41921;SDS011;27609;51.002;5.354;2022-09-03T04:36:13;3.67;;;1.58;;
41921;SDS011;27609;51.002;5.354;2022-09-03T04:38:45;3.40;;;1.50;;
41921;SDS011;27609;51.002;5.354;2022-09-03T04:41:17;4.30;;;1.80;;
41921;SDS011;27609;51.002;5.354;2022-09-03T04:43:46;3.95;;;1.83;;
41921;SDS011;27609;51.002;5.354;2022-09-03T04:46:13;2.17;;;1.55;;
41921;SDS011;27609;51.002;5.354;2022-09-03T04:48:41;4.50;;;1.80;;
41921;SDS011;27609;51.002;5.354;2022-09-03T04:51:09;5.13;;;1.70;;
41921;SDS011;27609;51.002;5.354;2022-09-03T04:53:38;6.37;;;1.50;;
41921;SDS011;27609;51.002;5.354;2022-09-03T04:56:17;6.93;;;1.90;;
41921;SDS011;27609;51.002;5.354;2022-09-03T04:58:44;5.43;;;1.55;;
41921;SDS011;27609;51.002;5.354;2022-09-03T05:01:10;4.00;;;1.50;;
41921;SDS011;27609;51.002;5.354;2022-09-03T05:03:41;4.03;;;1.63;;
41921;SDS011;27609;51.002;5.354;2022-09-03T05:06:06;4.63;;;1.80;;
41921;SDS011;27609;51.002;5.354;2022-09-03T05:08:32;1.75;;;1.50;;
41921;SDS011;27609;51.002;5.354;2022-09-03T05:11:04;7.28;;;1.70;;
41921;SDS011;27609;51.002;5.354;2022-09-03T05:13:31;2.53;;;1.60;;
41921;SDS011;27609;51.002;5.354;2022-09-03T05:15:58;1.67;;;1.50;;
41921;SDS011;27609;51.002;5.354;2022-09-03T05:18:28;2.85;;;1.85;;
41921;SDS011;27609;51.002;5.354;2022-09-03T05:21:00;6.53;;;1.98;;
41921;SDS011;27609;51.002;5.354;2022-09-03T05:23:27;2.58;;;1.77;;
41921;SDS011;27609;51.002;5.354;2022-09-03T05:25:58;4.97;;;1.67;;
41921;SDS011;27609;51.002;5.354;2022-09-03T05:28:26;4.38;;;1.80;;
41921;SDS011;27609;51.002;5.354;2022-09-03T05:30:59;2.90;;;1.95;;
41921;SDS011;27609;51.002;5.354;2022-09-03T05:33:46;4.82;;;1.65;;
41921;SDS011;27609;51.002;5.354;2022-09-03T05:36:18;8.18;;;1.70;;
41921;SDS011;27609;51.002;5.354;2022-09-03T05:38:46;4.50;;;1.50;;
41921;SDS011;27609;51.002;5.354;2022-09-03T05:41:14;1.70;;;1.60;;
41921;SDS011;27609;51.002;5.354;2022-09-03T05:43:42;8.82;;;2.45;;
41921;SDS011;27609;51.002;5.354;2022-09-03T05:46:12;7.80;;;1.48;;
41921;SDS011;27609;51.002;5.354;2022-09-03T05:48:42;4.20;;;1.60;;
41921;SDS011;27609;51.002;5.354;2022-09-03T05:51:09;6.78;;;1.80;;
41921;SDS011;27609;51.002;5.354;2022-09-03T05:53:37;4.10;;;1.88;;
41921;SDS011;27609;51.002;5.354;2022-09-03T05:56:05;7.25;;;1.55;;
41921;SDS011;27609;51.002;5.354;2022-09-03T05:58:41;6.60;;;1.73;;
41921;SDS011;27609;51.002;5.354;2022-09-03T06:01:31;4.00;;;1.60;;
41921;SDS011;27609;51.002;5.354;2022-09-03T06:04:00;5.05;;;2.20;;
41921;SDS011;27609;51.002;5.354;2022-09-03T06:06:28;3.65;;;1.80;;
41921;SDS011;27609;51.002;5.354;2022-09-03T06:08:57;4.22;;;1.65;;
41921;SDS011;27609;51.002;5.354;2022-09-03T06:11:26;3.20;;;1.50;;
41921;SDS011;27609;51.002;5.354;2022-09-03T06:13:57;5.05;;;1.80;;
41921;SDS011;27609;51.002;5.354;2022-09-03T06:16:25;7.40;;;1.83;;
41921;SDS011;27609;51.002;5.354;2022-09-03T06:18:51;2.45;;;1.52;;
41921;SDS011;27609;51.002;5.354;2022-09-03T06:21:18;7.10;;;1.77;;
41921;SDS011;27609;51.002;5.354;2022-09-03T06:23:48;2.97;;;2.17;;
41921;SDS011;27609;51.002;5.354;2022-09-03T06:26:18;10.18;;;2.10;;
41921;SDS011;27609;51.002;5.354;2022-09-03T06:28:44;3.90;;;1.60;;
41921;SDS011;27609;51.002;5.354;2022-09-03T06:31:13;5.78;;;1.70;;
41921;SDS011;27609;51.002;5.354;2022-09-03T06:33:40;2.70;;;1.50;;
41921;SDS011;27609;51.002;5.354;2022-09-03T06:36:07;5.07;;;1.65;;
41921;SDS011;27609;51.002;5.354;2022-09-03T06:38:38;4.55;;;1.50;;
41921;SDS011;27609;51.002;5.354;2022-09-03T06:41:08;5.85;;;2.03;;
41921;SDS011;27609;51.002;5.354;2022-09-03T06:43:39;4.68;;;1.73;;
41921;SDS011;27609;51.002;5.354;2022-09-03T06:46:07;4.45;;;1.70;;
41921;SDS011;27609;51.002;5.354;2022-09-03T06:48:35;8.23;;;1.83;;
41921;SDS011;27609;51.002;5.354;2022-09-03T06:51:02;5.30;;;1.73;;
41921;SDS011;27609;51.002;5.354;2022-09-03T06:53:31;2.00;;;1.48;;
41921;SDS011;27609;51.002;5.354;2022-09-03T06:55:59;5.00;;;1.58;;
41921;SDS011;27609;51.002;5.354;2022-09-03T06:58:30;2.70;;;1.65;;
41921;SDS011;27609;51.002;5.354;2022-09-03T07:01:05;5.05;;;1.75;;
41921;SDS011;27609;51.002;5.354;2022-09-03T07:03:36;4.20;;;1.55;;
41921;SDS011;27609;51.002;5.354;2022-09-03T07:06:03;9.85;;;2.42;;
41921;SDS011;27609;51.002;5.354;2022-09-03T07:08:36;4.00;;;1.42;;
41921;SDS011;27609;51.002;5.354;2022-09-03T07:11:02;3.95;;;1.58;;
41921;SDS011;27609;51.002;5.354;2022-09-03T07:13:51;3.75;;;1.63;;
41921;SDS011;27609;51.002;5.354;2022-09-03T07:16:21;2.70;;;1.40;;
41921;SDS011;27609;51.002;5.354;2022-09-03T07:18:48;4.50;;;1.13;;
41921;SDS011;27609;51.002;5.354;2022-09-03T07:21:15;5.85;;;1.50;;
41921;SDS011;27609;51.002;5.354;2022-09-03T07:23:45;3.70;;;1.40;;
41921;SDS011;27609;51.002;5.354;2022-09-03T07:26:17;4.75;;;1.98;;
41921;SDS011;27609;51.002;5.354;2022-09-03T07:31:19;4.03;;;1.40;;
41921;SDS011;27609;51.002;5.354;2022-09-03T07:33:59;3.88;;;1.88;;
41921;SDS011;27609;51.002;5.354;2022-09-03T07:36:30;4.10;;;1.70;;
41921;SDS011;27609;51.002;5.354;2022-09-03T07:39:06;4.75;;;1.75;;
41921;SDS011;27609;51.002;5.354;2022-09-03T07:41:33;3.33;;;1.70;;
41921;SDS011;27609;51.002;5.354;2022-09-03T07:44:02;6.75;;;1.70;;
41921;SDS011;27609;51.002;5.354;2022-09-03T07:46:30;3.22;;;1.40;;
41921;SDS011;27609;51.002;5.354;2022-09-03T07:48:58;2.03;;;1.30;;
41921;SDS011;27609;51.002;5.354;2022-09-03T07:51:28;2.28;;;1.83;;
41921;SDS011;27609;51.002;5.354;2022-09-03T07:53:57;6.70;;;1.80;;
41921;SDS011;27609;51.002;5.354;2022-09-03T07:56:24;6.20;;;1.50;;
41921;SDS011;27609;51.002;5.354;2022-09-03T07:58:51;4.82;;;1.95;;
41921;SDS011;27609;51.002;5.354;2022-09-03T08:01:19;3.00;;;1.63;;
41921;SDS011;27609;51.002;5.354;2022-09-03T08:03:47;5.93;;;1.63;;
41921;SDS011;27609;51.002;5.354;2022-09-03T08:06:14;4.88;;;1.75;;
41921;SDS011;27609;51.002;5.354;2022-09-03T08:08:41;5.78;;;1.73;;
41921;SDS011;27609;51.002;5.354;2022-09-03T08:11:10;3.25;;;1.83;;
41921;SDS011;27609;51.002;5.354;2022-09-03T08:13:40;4.90;;;1.75;;
41921;SDS011;27609;51.002;5.354;2022-09-03T08:16:09;6.60;;;1.92;;
41921;SDS011;27609;51.002;5.354;2022-09-03T08:18:35;6.45;;;1.90;;
41921;SDS011;27609;51.002;5.354;2022-09-03T08:21:04;4.57;;;1.80;;
41921;SDS011;27609;51.002;5.354;2022-09-03T08:23:41;2.50;;;1.88;;
41921;SDS011;27609;51.002;5.354;2022-09-03T08:26:10;5.85;;;2.00;;
41921;SDS011;27609;51.002;5.354;2022-09-03T08:28:37;2.63;;;1.25;;
41921;SDS011;27609;51.002;5.354;2022-09-03T08:31:07;3.50;;;1.63;;
41921;SDS011;27609;51.002;5.354;2022-09-03T08:33:37;1.83;;;1.25;;
41921;SDS011;27609;51.002;5.354;2022-09-03T08:36:04;3.75;;;1.65;;
41921;SDS011;27609;51.002;5.354;2022-09-03T08:38:32;2.10;;;1.90;;
41921;SDS011;27609;51.002;5.354;2022-09-03T08:41:05;6.07;;;1.50;;
41921;SDS011;27609;51.002;5.354;2022-09-03T08:43:40;2.13;;;1.33;;
41921;SDS011;27609;51.002;5.354;2022-09-03T08:46:39;8.55;;;1.92;;
41921;SDS011;27609;51.002;5.354;2022-09-03T08:49:19;5.00;;;1.83;;
41921;SDS011;27609;51.002;5.354;2022-09-03T08:51:51;5.50;;;1.90;;
41921;SDS011;27609;51.002;5.354;2022-09-03T08:54:23;6.93;;;1.90;;
41921;SDS011;27609;51.002;5.354;2022-09-03T08:56:53;6.68;;;1.70;;
41921;SDS011;27609;51.002;5.354;2022-09-03T08:59:26;3.20;;;1.75;;
41921;SDS011;27609;51.002;5.354;2022-09-03T09:04:35;4.07;;;1.80;;
41921;SDS011;27609;51.002;5.354;2022-09-03T09:07:24;7.18;;;3.00;;
41921;SDS011;27609;51.002;5.354;2022-09-03T09:12:46;3.60;;;1.70;;
41921;SDS011;27609;51.002;5.354;2022-09-03T09:18:24;3.78;;;2.30;;
41921;SDS011;27609;51.002;5.354;2022-09-03T09:23:32;7.75;;;2.28;;
41921;SDS011;27609;51.002;5.354;2022-09-03T09:26:08;1.70;;;1.60;;
41921;SDS011;27609;51.002;5.354;2022-09-03T09:31:04;2.38;;;1.92;;
41921;SDS011;27609;51.002;5.354;2022-09-03T09:33:36;8.10;;;2.20;;
41921;SDS011;27609;51.002;5.354;2022-09-03T09:36:05;5.85;;;1.60;;
41921;SDS011;27609;51.002;5.354;2022-09-03T09:38:36;5.30;;;1.88;;
41921;SDS011;27609;51.002;5.354;2022-09-03T09:41:36;5.38;;;1.70;;
41921;SDS011;27609;51.002;5.354;2022-09-03T09:43:59;1.50;;;1.40;;
41921;SDS011;27609;51.002;5.354;2022-09-03T09:46:36;4.20;;;2.08;;
41921;SDS011;27609;51.002;5.354;2022-09-03T09:49:06;6.85;;;1.88;;
41921;SDS011;27609;51.002;5.354;2022-09-03T09:51:59;2.60;;;1.88;;
41921;SDS011;27609;51.002;5.354;2022-09-03T09:54:36;2.78;;;1.88;;
41921;SDS011;27609;51.002;5.354;2022-09-03T09:57:26;2.72;;;1.73;;
41921;SDS011;27609;51.002;5.354;2022-09-03T10:00:01;1.45;;;1.35;;
41921;SDS011;27609;51.002;5.354;2022-09-03T10:05:27;2.15;;;1.95;;
41921;SDS011;27609;51.002;5.354;2022-09-03T10:07:58;5.38;;;1.67;;
41921;SDS011;27609;51.002;5.354;2022-09-03T10:10:24;3.05;;;1.90;;
41921;SDS011;27609;51.002;5.354;2022-09-03T10:13:01;5.07;;;2.00;;
41921;SDS011;27609;51.002;5.354;2022-09-03T10:21:10;3.30;;;1.92;;
41921;SDS011;27609;51.002;5.354;2022-09-03T10:23:57;3.28;;;1.58;;
41921;SDS011;27609;51.002;5.354;2022-09-03T10:26:39;7.25;;;1.70;;
41921;SDS011;27609;51.002;5.354;2022-09-03T10:29:06;1.92;;;1.63;;
41921;SDS011;27609;51.002;5.354;2022-09-03T10:31:50;2.67;;;1.73;;
41921;SDS011;27609;51.002;5.354;2022-09-03T10:34:33;1.48;;;1.38;;
41921;SDS011;27609;51.002;5.354;2022-09-03T10:40:22;3.35;;;1.75;;
41921;SDS011;27609;51.002;5.354;2022-09-03T10:45:40;3.30;;;1.90;;
41921;SDS011;27609;51.002;5.354;2022-09-03T10:51:26;1.70;;;1.60;;
41921;SDS011;27609;51.002;5.354;2022-09-03T10:54:04;2.83;;;1.80;;
41921;SDS011;27609;51.002;5.354;2022-09-03T10:57:00;1.98;;;1.40;;
41921;SDS011;27609;51.002;5.354;2022-09-03T10:59:50;3.00;;;1.80;;
41921;SDS011;27609;51.002;5.354;2022-09-03T11:05:38;1.80;;;1.70;;
41921;SDS011;27609;51.002;5.354;2022-09-03T11:10:47;1.88;;;1.77;;
41921;SDS011;27609;51.002;5.354;2022-09-03T11:13:34;1.75;;;1.65;;
41921;SDS011;27609;51.002;5.354;2022-09-03T11:16:18;2.50;;;1.80;;
41921;SDS011;27609;51.002;5.354;2022-09-03T11:18:53;2.80;;;1.60;;
41921;SDS011;27609;51.002;5.354;2022-09-03T11:21:23;3.63;;;1.77;;
41921;SDS011;27609;51.002;5.354;2022-09-03T11:23:56;5.50;;;1.52;;
41921;SDS011;27609;51.002;5.354;2022-09-03T11:26:30;3.17;;;1.52;;
41921;SDS011;27609;51.002;5.354;2022-09-03T11:29:32;1.45;;;1.35;;
41921;SDS011;27609;51.002;5.354;2022-09-03T11:32:03;3.60;;;1.52;;
41921;SDS011;27609;51.002;5.354;2022-09-03T11:34:51;1.77;;;1.55;;
41921;SDS011;27609;51.002;5.354;2022-09-03T11:37:22;2.38;;;1.48;;
41921;SDS011;27609;51.002;5.354;2022-09-03T11:39:52;1.85;;;1.60;;
41921;SDS011;27609;51.002;5.354;2022-09-03T11:44:51;3.33;;;1.55;;
41921;SDS011;27609;51.002;5.354;2022-09-03T11:47:24;1.65;;;1.55;;
41921;SDS011;27609;51.002;5.354;2022-09-03T11:52:50;1.83;;;1.52;;
41921;SDS011;27609;51.002;5.354;2022-09-03T11:55:43;1.45;;;1.33;;
41921;SDS011;27609;51.002;5.354;2022-09-03T12:00:53;1.70;;;1.60;;
41921;SDS011;27609;51.002;5.354;2022-09-03T12:03:24;2.85;;;1.98;;
41921;SDS011;27609;51.002;5.354;2022-09-03T12:15:02;1.90;;;1.40;;
41921;SDS011;27609;51.002;5.354;2022-09-03T12:17:55;1.55;;;1.45;;
41921;SDS011;27609;51.002;5.354;2022-09-03T12:23:26;2.10;;;1.90;;
41921;SDS011;27609;51.002;5.354;2022-09-03T12:26:02;1.77;;;1.67;;
41921;SDS011;27609;51.002;5.354;2022-09-03T12:28:36;1.50;;;1.40;;
41921;SDS011;27609;51.002;5.354;2022-09-03T12:31:06;3.30;;;1.63;;
41921;SDS011;27609;51.002;5.354;2022-09-03T12:33:44;1.90;;;1.70;;
41921;SDS011;27609;51.002;5.354;2022-09-03T12:36:10;4.30;;;1.77;;
41921;SDS011;27609;51.002;5.354;2022-09-03T12:38:38;2.78;;;1.58;;
41921;SDS011;27609;51.002;5.354;2022-09-03T12:41:04;3.45;;;1.52;;
41921;SDS011;27609;51.002;5.354;2022-09-03T12:43:29;3.28;;;1.60;;
41921;SDS011;27609;51.002;5.354;2022-09-03T12:45:55;2.20;;;1.65;;
41921;SDS011;27609;51.002;5.354;2022-09-03T12:48:21;4.65;;;2.17;;
41921;SDS011;27609;51.002;5.354;2022-09-03T12:50:48;2.75;;;1.60;;
41921;SDS011;27609;51.002;5.354;2022-09-03T12:53:24;1.70;;;1.60;;
41921;SDS011;27609;51.002;5.354;2022-09-03T12:55:54;6.35;;;1.80;;
41921;SDS011;27609;51.002;5.354;2022-09-03T12:58:22;2.10;;;1.90;;
41921;SDS011;27609;51.002;5.354;2022-09-03T13:00:55;2.55;;;2.10;;
41921;SDS011;27609;51.002;5.354;2022-09-03T13:09:18;4.18;;;1.95;;
41921;SDS011;27609;51.002;5.354;2022-09-03T13:11:46;2.33;;;2.13;;
41921;SDS011;27609;51.002;5.354;2022-09-03T13:14:13;3.63;;;2.13;;
41921;SDS011;27609;51.002;5.354;2022-09-03T13:30:15;4.00;;;2.10;;
41921;SDS011;27609;51.002;5.354;2022-09-03T13:32:52;2.53;;;2.10;;
41921;SDS011;27609;51.002;5.354;2022-09-03T13:35:28;3.08;;;2.17;;
41921;SDS011;27609;51.002;5.354;2022-09-03T13:40:52;7.25;;;3.50;;
41921;SDS011;27609;51.002;5.354;2022-09-03T13:46:05;14.48;;;4.55;;
41921;SDS011;27609;51.002;5.354;2022-09-03T13:48:55;7.60;;;3.70;;
41921;SDS011;27609;51.002;5.354;2022-09-03T13:51:57;6.03;;;2.85;;
41921;SDS011;27609;51.002;5.354;2022-09-03T13:54:33;3.08;;;2.80;;
41921;SDS011;27609;51.002;5.354;2022-09-03T14:00:07;3.22;;;2.22;;
41921;SDS011;27609;51.002;5.354;2022-09-03T14:02:45;6.20;;;2.33;;
41921;SDS011;27609;51.002;5.354;2022-09-03T14:05:18;3.35;;;2.38;;
41921;SDS011;27609;51.002;5.354;2022-09-03T14:08:03;8.38;;;2.53;;
41921;SDS011;27609;51.002;5.354;2022-09-03T14:21:42;3.10;;;2.20;;
41921;SDS011;27609;51.002;5.354;2022-09-03T14:24:21;3.92;;;2.50;;
41921;SDS011;27609;51.002;5.354;2022-09-03T14:26:58;3.30;;;2.72;;
41921;SDS011;27609;51.002;5.354;2022-09-03T14:29:27;6.05;;;2.15;;
41921;SDS011;27609;51.002;5.354;2022-09-03T14:40:16;2.50;;;2.30;;
41921;SDS011;27609;51.002;5.354;2022-09-03T14:42:55;9.50;;;2.63;;
41921;SDS011;27609;51.002;5.354;2022-09-03T14:46:08;10.38;;;2.60;;
41921;SDS011;27609;51.002;5.354;2022-09-03T14:49:03;6.07;;;3.20;;
41921;SDS011;27609;51.002;5.354;2022-09-03T14:54:39;2.45;;;2.25;;
41921;SDS011;27609;51.002;5.354;2022-09-03T14:57:29;2.80;;;2.40;;
41921;SDS011;27609;51.002;5.354;2022-09-03T15:00:15;2.92;;;2.13;;
41921;SDS011;27609;51.002;5.354;2022-09-03T15:02:47;4.28;;;2.30;;
41921;SDS011;27609;51.002;5.354;2022-09-03T15:11:25;2.72;;;2.53;;
41921;SDS011;27609;51.002;5.354;2022-09-03T15:14:09;5.20;;;2.30;;
41921;SDS011;27609;51.002;5.354;2022-09-03T15:25:33;3.13;;;2.50;;
41921;SDS011;27609;51.002;5.354;2022-09-03T15:36:25;2.70;;;2.50;;
41921;SDS011;27609;51.002;5.354;2022-09-03T15:39:01;6.10;;;2.40;;
41921;SDS011;27609;51.002;5.354;2022-09-03T15:44:13;4.90;;;2.65;;
41921;SDS011;27609;51.002;5.354;2022-09-03T15:52:07;3.35;;;2.42;;
41921;SDS011;27609;51.002;5.354;2022-09-03T16:03:12;6.47;;;3.10;;
41921;SDS011;27609;51.002;5.354;2022-09-03T16:06:03;4.20;;;2.50;;
41921;SDS011;27609;51.002;5.354;2022-09-03T16:08:53;3.58;;;2.70;;
41921;SDS011;27609;51.002;5.354;2022-09-03T16:11:36;6.75;;;2.78;;
41921;SDS011;27609;51.002;5.354;2022-09-03T16:14:33;5.03;;;2.63;;
41921;SDS011;27609;51.002;5.354;2022-09-03T16:17:17;2.95;;;2.53;;
41921;SDS011;27609;51.002;5.354;2022-09-03T16:22:21;3.00;;;2.80;;
41921;SDS011;27609;51.002;5.354;2022-09-03T16:24:53;3.15;;;2.60;;
41921;SDS011;27609;51.002;5.354;2022-09-03T16:27:38;3.33;;;2.40;;
41921;SDS011;27609;51.002;5.354;2022-09-03T16:38:30;3.58;;;2.40;;
41921;SDS011;27609;51.002;5.354;2022-09-03T16:41:52;3.25;;;2.72;;
41921;SDS011;27609;51.002;5.354;2022-09-03T16:44:26;3.08;;;2.10;;
41921;SDS011;27609;51.002;5.354;2022-09-03T16:50:03;5.28;;;3.08;;
41921;SDS011;27609;51.002;5.354;2022-09-03T16:57:56;4.03;;;2.78;;
41921;SDS011;27609;51.002;5.354;2022-09-03T17:00:26;6.43;;;2.95;;
41921;SDS011;27609;51.002;5.354;2022-09-03T17:16:49;4.50;;;2.50;;
41921;SDS011;27609;51.002;5.354;2022-09-03T17:19:52;3.00;;;2.70;;
41921;SDS011;27609;51.002;5.354;2022-09-03T17:25:17;6.45;;;2.70;;
41921;SDS011;27609;51.002;5.354;2022-09-03T17:30:53;15.30;;;3.15;;
41921;SDS011;27609;51.002;5.354;2022-09-03T17:33:48;5.63;;;2.97;;
41921;SDS011;27609;51.002;5.354;2022-09-03T17:36:29;4.15;;;2.63;;
41921;SDS011;27609;51.002;5.354;2022-09-03T17:41:47;7.88;;;2.67;;
41921;SDS011;27609;51.002;5.354;2022-09-03T17:52:28;8.95;;;3.50;;
41921;SDS011;27609;51.002;5.354;2022-09-03T17:55:12;5.70;;;3.42;;
41921;SDS011;27609;51.002;5.354;2022-09-03T17:58:13;6.20;;;3.65;;
41921;SDS011;27609;51.002;5.354;2022-09-03T18:06:21;3.92;;;3.17;;
41921;SDS011;27609;51.002;5.354;2022-09-03T18:11:48;5.22;;;3.50;;
41921;SDS011;27609;51.002;5.354;2022-09-03T18:17:01;7.78;;;3.38;;
41921;SDS011;27609;51.002;5.354;2022-09-03T18:22:20;4.57;;;3.13;;
41921;SDS011;27609;51.002;5.354;2022-09-03T18:25:08;3.92;;;3.17;;
41921;SDS011;27609;51.002;5.354;2022-09-03T18:27:57;4.03;;;3.13;;
41921;SDS011;27609;51.002;5.354;2022-09-03T18:30:46;3.75;;;3.22;;
41921;SDS011;27609;51.002;5.354;2022-09-03T18:33:30;6.10;;;3.50;;
41921;SDS011;27609;51.002;5.354;2022-09-03T18:36:14;10.07;;;3.13;;
41921;SDS011;27609;51.002;5.354;2022-09-03T18:39:02;3.25;;;2.70;;
41921;SDS011;27609;51.002;5.354;2022-09-03T18:45:02;4.28;;;3.30;;
41921;SDS011;27609;51.002;5.354;2022-09-03T18:48:13;5.10;;;3.47;;
41921;SDS011;27609;51.002;5.354;2022-09-03T18:51:09;10.63;;;3.33;;
41921;SDS011;27609;51.002;5.354;2022-09-03T18:57:16;6.25;;;3.78;;
41921;SDS011;27609;51.002;5.354;2022-09-03T19:00:08;8.68;;;3.60;;
41921;SDS011;27609;51.002;5.354;2022-09-03T19:09:31;4.18;;;3.40;;
41921;SDS011;27609;51.002;5.354;2022-09-03T19:12:30;5.55;;;3.35;;
41921;SDS011;27609;51.002;5.354;2022-09-03T19:15:28;4.27;;;3.77;;
41921;SDS011;27609;51.002;5.354;2022-09-03T19:18:20;3.72;;;3.38;;
41921;SDS011;27609;51.002;5.354;2022-09-03T19:24:25;4.25;;;3.55;;
41921;SDS011;27609;51.002;5.354;2022-09-03T19:43:40;3.85;;;2.88;;
41921;SDS011;27609;51.002;5.354;2022-09-03T19:46:42;3.80;;;3.20;;
41921;SDS011;27609;51.002;5.354;2022-09-03T19:52:36;3.20;;;2.90;;
41921;SDS011;27609;51.002;5.354;2022-09-03T19:55:25;8.57;;;3.15;;
41921;SDS011;27609;51.002;5.354;2022-09-03T19:58:10;7.25;;;3.15;;
41921;SDS011;27609;51.002;5.354;2022-09-03T20:00:59;3.08;;;2.67;;
41921;SDS011;27609;51.002;5.354;2022-09-03T20:03:44;10.75;;;3.10;;
41921;SDS011;27609;51.002;5.354;2022-09-03T20:06:28;4.20;;;3.45;;
41921;SDS011;27609;51.002;5.354;2022-09-03T20:09:14;4.13;;;3.35;;
41921;SDS011;27609;51.002;5.354;2022-09-03T20:12:03;5.30;;;3.67;;
41921;SDS011;27609;51.002;5.354;2022-09-03T20:14:32;5.03;;;3.58;;
41921;SDS011;27609;51.002;5.354;2022-09-03T20:17:11;8.02;;;3.20;;
41921;SDS011;27609;51.002;5.354;2022-09-03T20:27:48;5.20;;;3.67;;
41921;SDS011;27609;51.002;5.354;2022-09-03T20:30:25;4.20;;;2.83;;
41921;SDS011;27609;51.002;5.354;2022-09-03T20:41:22;5.10;;;3.22;;
41921;SDS011;27609;51.002;5.354;2022-09-03T20:44:10;8.35;;;3.42;;
41921;SDS011;27609;51.002;5.354;2022-09-03T20:57:32;4.22;;;2.97;;
41921;SDS011;27609;51.002;5.354;2022-09-03T21:00:07;4.47;;;3.40;;
41921;SDS011;27609;51.002;5.354;2022-09-03T21:10:51;2.90;;;2.65;;
41921;SDS011;27609;51.002;5.354;2022-09-03T21:13:25;5.95;;;2.72;;